sensor_id;sensor_type;location;lat;lon;timestamp;P1;durP1;ratioP1;P2;durP2;ratioP2
37169;SDS011;23062;13.952;100.608;2023-03-23T00:00:08;11.00;;;8.00;;
37169;SDS011;23062;13.952;100.608;2023-03-23T00:04:35;9.00;;;7.00;;
37169;SDS011;23062;13.952;100.608;2023-03-23T00:09:00;11.00;;;6.93;;
37169;SDS011;23062;13.952;100.608;2023-03-23T00:13:29;12.00;;;9.00;;
37169;SDS011;23062;13.952;100.608;2023-03-23T00:17:55;11.00;;;8.00;;
37169;SDS011;23062;13.952;100.608;2023-03-23T00:22:22;11.00;;;7.00;;
37169;SDS011;23062;13.952;100.608;2023-03-23T00:26:48;11.00;;;7.00;;
37169;SDS011;23062;13.952;100.608;2023-03-23T00:31:13;13.00;;;9.00;;
37169;SDS011;23062;13.952;100.608;2023-03-23T00:35:39;11.00;;;8.00;;
37169;SDS011;23062;13.952;100.608;2023-03-23T00:40:10;10.00;;;7.00;;
37169;SDS011;23062;13.952;100.608;2023-03-23T00:44:35;11.00;;;8.00;;
37169;SDS011;23062;13.952;100.608;2023-03-23T00:49:02;13.00;;;9.00;;
37169;SDS011;23062;13.952;100.608;2023-03-23T00:53:27;11.00;;;8.00;;
37169;SDS011;23062;13.952;100.608;2023-03-23T00:57:55;12.00;;;9.00;;
37169;SDS011;23062;13.952;100.608;2023-03-23T01:02:20;11.00;;;8.00;;
37169;SDS011;23062;13.952;100.608;2023-03-23T01:06:48;11.00;;;8.00;;
37169;SDS011;23062;13.952;100.608;2023-03-23T01:11:17;11.00;;;8.00;;
37169;SDS011;23062;13.952;100.608;2023-03-23T01:15:42;13.00;;;9.00;;
37169;SDS011;23062;13.952;100.608;2023-03-23T01:20:07;13.00;;;9.00;;
37169;SDS011;23062;13.952;100.608;2023-03-23T01:24:33;11.00;;;8.00;;
37169;SDS011;23062;13.952;100.608;2023-03-23T01:28:59;12.00;;;9.00;;
37169;SDS011;23062;13.952;100.608;2023-03-23T01:33:24;12.00;;;7.80;;
37169;SDS011;23062;13.952;100.608;2023-03-23T01:37:49;12.00;;;9.00;;
37169;SDS011;23062;13.952;100.608;2023-03-23T01:42:14;13.00;;;9.00;;
37169;SDS011;23062;13.952;100.608;2023-03-23T01:46:39;13.00;;;10.00;;
37169;SDS011;23062;13.952;100.608;2023-03-23T01:51:09;15.00;;;11.00;;
37169;SDS011;23062;13.952;100.608;2023-03-23T01:55:36;16.00;;;10.27;;
37169;SDS011;23062;13.952;100.608;2023-03-23T02:00:07;14.00;;;10.00;;
37169;SDS011;23062;13.952;100.608;2023-03-23T02:04:37;21.00;;;15.00;;
37169;SDS011;23062;13.952;100.608;2023-03-23T02:09:05;16.00;;;12.00;;
37169;SDS011;23062;13.952;100.608;2023-03-23T02:13:29;16.00;;;12.00;;
37169;SDS011;23062;13.952;100.608;2023-03-23T02:27:49;17.00;;;13.00;;
37169;SDS011;23062;13.952;100.608;2023-03-23T02:37:14;22.00;;;16.00;;
37169;SDS011;23062;13.952;100.608;2023-03-23T02:41:41;22.00;;;17.00;;
37169;SDS011;23062;13.952;100.608;2023-03-23T02:46:19;21.00;;;15.00;;
37169;SDS011;23062;13.952;100.608;2023-03-23T02:50:47;23.00;;;18.00;;
37169;SDS011;23062;13.952;100.608;2023-03-23T02:55:31;24.00;;;18.00;;
37169;SDS011;23062;13.952;100.608;2023-03-23T03:00:03;22.00;;;15.87;;
37169;SDS011;23062;13.952;100.608;2023-03-23T03:04:31;26.00;;;19.00;;
37169;SDS011;23062;13.952;100.608;2023-03-23T03:09:05;24.00;;;18.00;;
37169;SDS011;23062;13.952;100.608;2023-03-23T03:13:41;23.00;;;18.00;;
37169;SDS011;23062;13.952;100.608;2023-03-23T03:18:23;25.00;;;18.00;;
37169;SDS011;23062;13.952;100.608;2023-03-23T03:23:01;24.00;;;19.00;;
37169;SDS011;23062;13.952;100.608;2023-03-23T03:27:34;26.00;;;19.00;;
37169;SDS011;23062;13.952;100.608;2023-03-23T03:32:00;23.00;;;18.00;;
37169;SDS011;23062;13.952;100.608;2023-03-23T03:36:28;24.00;;;19.00;;
37169;SDS011;23062;13.952;100.608;2023-03-23T03:40:56;27.00;;;20.00;;
37169;SDS011;23062;13.952;100.608;2023-03-23T03:45:24;24.00;;;18.00;;
37169;SDS011;23062;13.952;100.608;2023-03-23T03:49:48;23.00;;;18.00;;
37169;SDS011;23062;13.952;100.608;2023-03-23T03:54:16;24.00;;;18.00;;
37169;SDS011;23062;13.952;100.608;2023-03-23T03:58:41;24.00;;;19.00;;
37169;SDS011;23062;13.952;100.608;2023-03-23T04:03:09;24.00;;;19.00;;
37169;SDS011;23062;13.952;100.608;2023-03-23T04:07:38;23.00;;;16.80;;
37169;SDS011;23062;13.952;100.608;2023-03-23T04:12:04;28.00;;;18.67;;
37169;SDS011;23062;13.952;100.608;2023-03-23T04:16:29;25.00;;;18.00;;
37169;SDS011;23062;13.952;100.608;2023-03-23T04:20:56;25.00;;;19.00;;
37169;SDS011;23062;13.952;100.608;2023-03-23T04:25:21;25.00;;;19.00;;
37169;SDS011;23062;13.952;100.608;2023-03-23T04:29:47;25.00;;;19.00;;
37169;SDS011;23062;13.952;100.608;2023-03-23T04:34:13;23.00;;;18.00;;
37169;SDS011;23062;13.952;100.608;2023-03-23T04:38:37;26.00;;;19.00;;
37169;SDS011;23062;13.952;100.608;2023-03-23T04:43:03;21.00;;;15.00;;
37169;SDS011;23062;13.952;100.608;2023-03-23T04:47:31;30.00;;;22.00;;
37169;SDS011;23062;13.952;100.608;2023-03-23T04:51:58;26.00;;;19.00;;
37169;SDS011;23062;13.952;100.608;2023-03-23T04:56:23;26.00;;;19.00;;
37169;SDS011;23062;13.952;100.608;2023-03-23T05:00:48;23.00;;;18.00;;
37169;SDS011;23062;13.952;100.608;2023-03-23T05:05:14;21.00;;;15.00;;
37169;SDS011;23062;13.952;100.608;2023-03-23T05:09:46;27.00;;;20.00;;
37169;SDS011;23062;13.952;100.608;2023-03-23T05:14:12;25.00;;;20.00;;
37169;SDS011;23062;13.952;100.608;2023-03-23T05:18:43;30.00;;;22.00;;
37169;SDS011;23062;13.952;100.608;2023-03-23T05:23:12;27.00;;;21.00;;
37169;SDS011;23062;13.952;100.608;2023-03-23T05:27:38;26.00;;;20.00;;
37169;SDS011;23062;13.952;100.608;2023-03-23T05:32:07;26.00;;;19.00;;
37169;SDS011;23062;13.952;100.608;2023-03-23T05:36:32;25.00;;;19.00;;
37169;SDS011;23062;13.952;100.608;2023-03-23T05:41:00;24.00;;;18.00;;
37169;SDS011;23062;13.952;100.608;2023-03-23T05:45:25;26.00;;;20.00;;
37169;SDS011;23062;13.952;100.608;2023-03-23T05:49:52;26.00;;;20.00;;
37169;SDS011;23062;13.952;100.608;2023-03-23T05:54:17;25.00;;;20.00;;
37169;SDS011;23062;13.952;100.608;2023-03-23T05:58:42;29.00;;;22.00;;
37169;SDS011;23062;13.952;100.608;2023-03-23T06:03:07;31.00;;;22.00;;
37169;SDS011;23062;13.952;100.608;2023-03-23T06:07:35;27.00;;;21.00;;
37169;SDS011;23062;13.952;100.608;2023-03-23T06:12:01;28.00;;;21.00;;
37169;SDS011;23062;13.952;100.608;2023-03-23T06:16:28;30.00;;;23.00;;
37169;SDS011;23062;13.952;100.608;2023-03-23T06:20:53;30.00;;;22.00;;
37169;SDS011;23062;13.952;100.608;2023-03-23T06:25:18;28.00;;;21.00;;
37169;SDS011;23062;13.952;100.608;2023-03-23T06:29:44;31.00;;;22.00;;
37169;SDS011;23062;13.952;100.608;2023-03-23T06:34:08;30.00;;;23.00;;
37169;SDS011;23062;13.952;100.608;2023-03-23T06:38:34;31.00;;;24.00;;
37169;SDS011;23062;13.952;100.608;2023-03-23T06:42:59;29.00;;;21.00;;
37169;SDS011;23062;13.952;100.608;2023-03-23T06:47:24;25.00;;;20.00;;
37169;SDS011;23062;13.952;100.608;2023-03-23T06:51:51;28.00;;;20.00;;
37169;SDS011;23062;13.952;100.608;2023-03-23T06:56:27;29.00;;;21.00;;
37169;SDS011;23062;13.952;100.608;2023-03-23T07:00:48;27.00;;;20.00;;
37169;SDS011;23062;13.952;100.608;2023-03-23T07:05:14;28.00;;;22.00;;
37169;SDS011;23062;13.952;100.608;2023-03-23T07:09:42;28.00;;;20.00;;
37169;SDS011;23062;13.952;100.608;2023-03-23T07:14:09;30.00;;;23.00;;
37169;SDS011;23062;13.952;100.608;2023-03-23T07:18:33;27.00;;;21.00;;
37169;SDS011;23062;13.952;100.608;2023-03-23T07:23:05;31.00;;;22.00;;
37169;SDS011;23062;13.952;100.608;2023-03-23T07:27:33;28.00;;;21.00;;
37169;SDS011;23062;13.952;100.608;2023-03-23T07:31:58;27.00;;;21.00;;
37169;SDS011;23062;13.952;100.608;2023-03-23T07:36:22;30.00;;;23.00;;
37169;SDS011;23062;13.952;100.608;2023-03-23T07:40:47;31.00;;;23.00;;
37169;SDS011;23062;13.952;100.608;2023-03-23T07:45:12;29.00;;;22.00;;
37169;SDS011;23062;13.952;100.608;2023-03-23T07:49:44;30.00;;;23.00;;
37169;SDS011;23062;13.952;100.608;2023-03-23T07:54:11;32.00;;;25.00;;
37169;SDS011;23062;13.952;100.608;2023-03-23T07:58:38;33.00;;;25.00;;
37169;SDS011;23062;13.952;100.608;2023-03-23T08:03:05;32.00;;;25.00;;
37169;SDS011;23062;13.952;100.608;2023-03-23T08:07:30;32.00;;;25.00;;
37169;SDS011;23062;13.952;100.608;2023-03-23T08:11:55;31.00;;;23.00;;
37169;SDS011;23062;13.952;100.608;2023-03-23T08:16:20;37.00;;;27.00;;
37169;SDS011;23062;13.952;100.608;2023-03-23T08:20:46;30.00;;;24.00;;
37169;SDS011;23062;13.952;100.608;2023-03-23T08:25:16;33.00;;;24.00;;
37169;SDS011;23062;13.952;100.608;2023-03-23T08:29:40;33.00;;;24.00;;
37169;SDS011;23062;13.952;100.608;2023-03-23T08:34:06;35.00;;;26.00;;
37169;SDS011;23062;13.952;100.608;2023-03-23T08:38:31;33.00;;;24.00;;
37169;SDS011;23062;13.952;100.608;2023-03-23T08:42:56;30.00;;;23.00;;
37169;SDS011;23062;13.952;100.608;2023-03-23T08:47:24;29.00;;;22.00;;
37169;SDS011;23062;13.952;100.608;2023-03-23T08:51:49;30.00;;;23.00;;
37169;SDS011;23062;13.952;100.608;2023-03-23T08:56:18;33.00;;;25.00;;
37169;SDS011;23062;13.952;100.608;2023-03-23T09:00:44;35.00;;;27.00;;
37169;SDS011;23062;13.952;100.608;2023-03-23T09:05:10;33.00;;;24.00;;
37169;SDS011;23062;13.952;100.608;2023-03-23T09:09:35;31.00;;;24.00;;
37169;SDS011;23062;13.952;100.608;2023-03-23T09:14:02;30.00;;;22.00;;
37169;SDS011;23062;13.952;100.608;2023-03-23T09:18:31;33.00;;;22.40;;
37169;SDS011;23062;13.952;100.608;2023-03-23T09:23:00;33.00;;;25.00;;
37169;SDS011;23062;13.952;100.608;2023-03-23T09:27:25;34.00;;;27.00;;
37169;SDS011;23062;13.952;100.608;2023-03-23T09:31:50;37.00;;;28.00;;
37169;SDS011;23062;13.952;100.608;2023-03-23T09:36:16;35.00;;;27.00;;
37169;SDS011;23062;13.952;100.608;2023-03-23T09:40:48;38.00;;;28.00;;
37169;SDS011;23062;13.952;100.608;2023-03-23T09:49:51;35.00;;;28.00;;
37169;SDS011;23062;13.952;100.608;2023-03-23T09:58:57;40.00;;;29.00;;
37169;SDS011;23062;13.952;100.608;2023-03-23T10:03:24;38.00;;;25.13;;
37169;SDS011;23062;13.952;100.608;2023-03-23T10:07:55;37.00;;;29.00;;
37169;SDS011;23062;13.952;100.608;2023-03-23T10:12:36;35.00;;;21.60;;
37169;SDS011;23062;13.952;100.608;2023-03-23T10:21:54;34.00;;;27.00;;
37169;SDS011;23062;13.952;100.608;2023-03-23T10:26:27;36.00;;;27.00;;
37169;SDS011;23062;13.952;100.608;2023-03-23T10:31:01;35.00;;;26.00;;
37169;SDS011;23062;13.952;100.608;2023-03-23T10:40:19;35.00;;;28.00;;
37169;SDS011;23062;13.952;100.608;2023-03-23T10:49:47;36.00;;;27.00;;
37169;SDS011;23062;13.952;100.608;2023-03-23T10:54:10;33.00;;;25.00;;
37169;SDS011;23062;13.952;100.608;2023-03-23T10:58:35;33.00;;;26.00;;
37169;SDS011;23062;13.952;100.608;2023-03-23T11:03:05;34.00;;;25.00;;
37169;SDS011;23062;13.952;100.608;2023-03-23T11:07:33;32.00;;;25.00;;
37169;SDS011;23062;13.952;100.608;2023-03-23T11:11:59;34.00;;;25.00;;
37169;SDS011;23062;13.952;100.608;2023-03-23T11:16:32;33.00;;;26.00;;
37169;SDS011;23062;13.952;100.608;2023-03-23T11:20:58;35.00;;;26.00;;
37169;SDS011;23062;13.952;100.608;2023-03-23T11:25:23;32.00;;;24.00;;
37169;SDS011;23062;13.952;100.608;2023-03-23T11:34:32;30.00;;;23.00;;
37169;SDS011;23062;13.952;100.608;2023-03-23T11:38:59;30.00;;;23.00;;
37169;SDS011;23062;13.952;100.608;2023-03-23T11:43:25;34.00;;;25.00;;
37169;SDS011;23062;13.952;100.608;2023-03-23T11:47:58;33.00;;;24.00;;
37169;SDS011;23062;13.952;100.608;2023-03-23T11:52:35;34.00;;;25.00;;
37169;SDS011;23062;13.952;100.608;2023-03-23T11:57:26;29.00;;;21.00;;
37169;SDS011;23062;13.952;100.608;2023-03-23T12:02:10;28.00;;;22.00;;
37169;SDS011;23062;13.952;100.608;2023-03-23T12:11:41;27.00;;;19.00;;
37169;SDS011;23062;13.952;100.608;2023-03-23T12:16:37;27.00;;;21.00;;
37169;SDS011;23062;13.952;100.608;2023-03-23T12:30:35;27.00;;;21.00;;
37169;SDS011;23062;13.952;100.608;2023-03-23T12:34:57;26.00;;;20.00;;
37169;SDS011;23062;13.952;100.608;2023-03-23T12:39:31;27.00;;;17.33;;
37169;SDS011;23062;13.952;100.608;2023-03-23T12:44:05;29.00;;;21.00;;
37169;SDS011;23062;13.952;100.608;2023-03-23T12:48:35;28.00;;;21.00;;
37169;SDS011;23062;13.952;100.608;2023-03-23T12:57:56;23.00;;;18.00;;
37169;SDS011;23062;13.952;100.608;2023-03-23T13:02:29;25.00;;;19.00;;
37169;SDS011;23062;13.952;100.608;2023-03-23T13:06:58;26.00;;;20.00;;
37169;SDS011;23062;13.952;100.608;2023-03-23T13:11:33;28.00;;;21.00;;
37169;SDS011;23062;13.952;100.608;2023-03-23T13:25:00;24.00;;;18.00;;
37169;SDS011;23062;13.952;100.608;2023-03-23T13:29:27;24.00;;;18.00;;
37169;SDS011;23062;13.952;100.608;2023-03-23T13:33:57;24.00;;;18.00;;
37169;SDS011;23062;13.952;100.608;2023-03-23T13:38:48;24.00;;;19.00;;
37169;SDS011;23062;13.952;100.608;2023-03-23T13:43:24;24.00;;;18.00;;
37169;SDS011;23062;13.952;100.608;2023-03-23T13:48:04;25.00;;;18.00;;
37169;SDS011;23062;13.952;100.608;2023-03-23T13:57:20;22.00;;;16.00;;
37169;SDS011;23062;13.952;100.608;2023-03-23T14:06:42;23.00;;;18.00;;
37169;SDS011;23062;13.952;100.608;2023-03-23T14:16:23;21.00;;;16.00;;
37169;SDS011;23062;13.952;100.608;2023-03-23T14:20:26;22.00;;;17.00;;
37169;SDS011;23062;13.952;100.608;2023-03-23T14:29:38;22.00;;;16.00;;
37169;SDS011;23062;13.952;100.608;2023-03-23T14:34:05;22.00;;;17.00;;
37169;SDS011;23062;13.952;100.608;2023-03-23T14:38:32;23.00;;;17.00;;
37169;SDS011;23062;13.952;100.608;2023-03-23T14:42:58;22.00;;;16.00;;
37169;SDS011;23062;13.952;100.608;2023-03-23T14:47:29;21.00;;;16.00;;
37169;SDS011;23062;13.952;100.608;2023-03-23T14:51:56;19.00;;;14.00;;
37169;SDS011;23062;13.952;100.608;2023-03-23T14:56:22;22.00;;;16.00;;
37169;SDS011;23062;13.952;100.608;2023-03-23T15:01:06;20.00;;;15.00;;
37169;SDS011;23062;13.952;100.608;2023-03-23T15:05:31;24.00;;;18.00;;
37169;SDS011;23062;13.952;100.608;2023-03-23T15:10:05;19.00;;;14.00;;
37169;SDS011;23062;13.952;100.608;2023-03-23T15:14:44;22.00;;;16.00;;
37169;SDS011;23062;13.952;100.608;2023-03-23T15:19:18;20.00;;;14.00;;
37169;SDS011;23062;13.952;100.608;2023-03-23T15:23:42;19.00;;;14.00;;
37169;SDS011;23062;13.952;100.608;2023-03-23T15:28:18;18.00;;;14.00;;
37169;SDS011;23062;13.952;100.608;2023-03-23T15:32:42;19.00;;;14.00;;
37169;SDS011;23062;13.952;100.608;2023-03-23T15:37:18;23.00;;;17.00;;
37169;SDS011;23062;13.952;100.608;2023-03-23T15:41:46;18.00;;;13.00;;
37169;SDS011;23062;13.952;100.608;2023-03-23T15:50:39;22.00;;;16.00;;
37169;SDS011;23062;13.952;100.608;2023-03-23T15:55:23;19.00;;;15.00;;
37169;SDS011;23062;13.952;100.608;2023-03-23T15:59:55;26.00;;;19.00;;
37169;SDS011;23062;13.952;100.608;2023-03-23T16:04:20;23.00;;;17.00;;
37169;SDS011;23062;13.952;100.608;2023-03-23T16:08:46;17.00;;;13.00;;
37169;SDS011;23062;13.952;100.608;2023-03-23T16:13:11;22.00;;;17.00;;
37169;SDS011;23062;13.952;100.608;2023-03-23T16:17:36;20.00;;;14.00;;
37169;SDS011;23062;13.952;100.608;2023-03-23T16:22:01;20.00;;;15.00;;
37169;SDS011;23062;13.952;100.608;2023-03-23T16:26:27;18.00;;;13.00;;
37169;SDS011;23062;13.952;100.608;2023-03-23T16:30:53;20.00;;;13.00;;
37169;SDS011;23062;13.952;100.608;2023-03-23T16:35:20;20.00;;;15.00;;
37169;SDS011;23062;13.952;100.608;2023-03-23T16:39:45;17.00;;;13.00;;
37169;SDS011;23062;13.952;100.608;2023-03-23T16:44:13;17.00;;;12.00;;
37169;SDS011;23062;13.952;100.608;2023-03-23T16:48:39;19.00;;;14.00;;
37169;SDS011;23062;13.952;100.608;2023-03-23T16:53:06;17.00;;;12.00;;
37169;SDS011;23062;13.952;100.608;2023-03-23T16:57:32;16.00;;;12.00;;
37169;SDS011;23062;13.952;100.608;2023-03-23T17:02:01;17.00;;;13.00;;
37169;SDS011;23062;13.952;100.608;2023-03-23T17:06:27;17.00;;;13.00;;
37169;SDS011;23062;13.952;100.608;2023-03-23T17:10:53;16.00;;;11.00;;
37169;SDS011;23062;13.952;100.608;2023-03-23T17:15:21;16.00;;;11.00;;
37169;SDS011;23062;13.952;100.608;2023-03-23T17:19:47;17.00;;;13.00;;
37169;SDS011;23062;13.952;100.608;2023-03-23T17:24:16;16.00;;;12.00;;
37169;SDS011;23062;13.952;100.608;2023-03-23T17:28:41;17.00;;;12.00;;
37169;SDS011;23062;13.952;100.608;2023-03-23T17:33:06;16.00;;;12.00;;
37169;SDS011;23062;13.952;100.608;2023-03-23T17:37:31;13.00;;;10.00;;
37169;SDS011;23062;13.952;100.608;2023-03-23T17:42:02;14.00;;;10.00;;
37169;SDS011;23062;13.952;100.608;2023-03-23T17:46:27;15.00;;;11.00;;
37169;SDS011;23062;13.952;100.608;2023-03-23T17:50:53;15.00;;;10.00;;
37169;SDS011;23062;13.952;100.608;2023-03-23T17:55:29;17.00;;;12.00;;
37169;SDS011;23062;13.952;100.608;2023-03-23T17:59:54;16.00;;;11.00;;
37169;SDS011;23062;13.952;100.608;2023-03-23T18:04:20;14.00;;;10.00;;
37169;SDS011;23062;13.952;100.608;2023-03-23T18:08:45;14.00;;;10.00;;
37169;SDS011;23062;13.952;100.608;2023-03-23T18:13:13;16.00;;;12.00;;
37169;SDS011;23062;13.952;100.608;2023-03-23T18:17:46;16.00;;;11.00;;
37169;SDS011;23062;13.952;100.608;2023-03-23T18:22:12;14.00;;;10.00;;
37169;SDS011;23062;13.952;100.608;2023-03-23T18:26:45;14.00;;;10.00;;
37169;SDS011;23062;13.952;100.608;2023-03-23T18:31:11;17.00;;;12.00;;
37169;SDS011;23062;13.952;100.608;2023-03-23T18:35:38;15.00;;;11.00;;
37169;SDS011;23062;13.952;100.608;2023-03-23T18:40:05;17.00;;;12.00;;
37169;SDS011;23062;13.952;100.608;2023-03-23T18:44:42;19.00;;;13.00;;
37169;SDS011;23062;13.952;100.608;2023-03-23T18:49:07;13.00;;;10.00;;
37169;SDS011;23062;13.952;100.608;2023-03-23T18:53:34;13.00;;;10.00;;
37169;SDS011;23062;13.952;100.608;2023-03-23T18:58:02;18.00;;;13.00;;
37169;SDS011;23062;13.952;100.608;2023-03-23T19:02:29;17.00;;;12.00;;
37169;SDS011;23062;13.952;100.608;2023-03-23T19:06:55;17.00;;;12.00;;
37169;SDS011;23062;13.952;100.608;2023-03-23T19:11:26;14.00;;;10.00;;
37169;SDS011;23062;13.952;100.608;2023-03-23T19:15:52;15.00;;;11.00;;
37169;SDS011;23062;13.952;100.608;2023-03-23T19:20:24;17.00;;;12.00;;
37169;SDS011;23062;13.952;100.608;2023-03-23T19:24:50;16.00;;;12.00;;
37169;SDS011;23062;13.952;100.608;2023-03-23T19:29:21;16.00;;;12.00;;
37169;SDS011;23062;13.952;100.608;2023-03-23T19:33:48;17.00;;;12.00;;
37169;SDS011;23062;13.952;100.608;2023-03-23T19:38:18;18.00;;;13.00;;
37169;SDS011;23062;13.952;100.608;2023-03-23T19:42:44;14.00;;;11.00;;
37169;SDS011;23062;13.952;100.608;2023-03-23T19:47:10;14.00;;;11.00;;
37169;SDS011;23062;13.952;100.608;2023-03-23T19:51:37;17.00;;;11.20;;
37169;SDS011;23062;13.952;100.608;2023-03-23T19:56:02;14.00;;;10.00;;
37169;SDS011;23062;13.952;100.608;2023-03-23T20:00:30;16.00;;;10.27;;
37169;SDS011;23062;13.952;100.608;2023-03-23T20:04:56;16.00;;;12.00;;
37169;SDS011;23062;13.952;100.608;2023-03-23T20:09:25;14.00;;;11.00;;
37169;SDS011;23062;13.952;100.608;2023-03-23T20:13:50;17.00;;;12.00;;
37169;SDS011;23062;13.952;100.608;2023-03-23T20:18:16;14.00;;;10.00;;
37169;SDS011;23062;13.952;100.608;2023-03-23T20:22:41;15.00;;;11.00;;
37169;SDS011;23062;13.952;100.608;2023-03-23T20:27:06;16.00;;;10.27;;
37169;SDS011;23062;13.952;100.608;2023-03-23T20:31:33;16.00;;;11.00;;
37169;SDS011;23062;13.952;100.608;2023-03-23T20:35:59;14.00;;;11.00;;
37169;SDS011;23062;13.952;100.608;2023-03-23T20:40:25;18.00;;;13.00;;
37169;SDS011;23062;13.952;100.608;2023-03-23T20:44:50;18.00;;;14.00;;
37169;SDS011;23062;13.952;100.608;2023-03-23T20:49:16;19.00;;;12.13;;
37169;SDS011;23062;13.952;100.608;2023-03-23T20:53:42;19.00;;;15.00;;
37169;SDS011;23062;13.952;100.608;2023-03-23T20:58:08;17.00;;;13.00;;
37169;SDS011;23062;13.952;100.608;2023-03-23T21:02:34;26.00;;;19.00;;
37169;SDS011;23062;13.952;100.608;2023-03-23T21:07:00;22.00;;;16.00;;
37169;SDS011;23062;13.952;100.608;2023-03-23T21:11:25;20.00;;;15.00;;
37169;SDS011;23062;13.952;100.608;2023-03-23T21:15:51;20.00;;;14.00;;
37169;SDS011;23062;13.952;100.608;2023-03-23T21:20:17;22.00;;;17.00;;
37169;SDS011;23062;13.952;100.608;2023-03-23T21:24:47;20.00;;;14.00;;
37169;SDS011;23062;13.952;100.608;2023-03-23T21:29:12;21.00;;;15.00;;
37169;SDS011;23062;13.952;100.608;2023-03-23T21:33:38;19.00;;;14.00;;
37169;SDS011;23062;13.952;100.608;2023-03-23T21:38:06;19.00;;;14.00;;
37169;SDS011;23062;13.952;100.608;2023-03-23T21:42:39;23.00;;;16.00;;
37169;SDS011;23062;13.952;100.608;2023-03-23T21:47:09;19.00;;;14.00;;
37169;SDS011;23062;13.952;100.608;2023-03-23T21:51:34;22.00;;;16.00;;
37169;SDS011;23062;13.952;100.608;2023-03-23T21:56:00;22.00;;;16.00;;
37169;SDS011;23062;13.952;100.608;2023-03-23T22:00:25;20.00;;;15.00;;
37169;SDS011;23062;13.952;100.608;2023-03-23T22:04:54;23.00;;;16.00;;
37169;SDS011;23062;13.952;100.608;2023-03-23T22:09:20;19.00;;;15.00;;
37169;SDS011;23062;13.952;100.608;2023-03-23T22:13:48;19.00;;;15.00;;
37169;SDS011;23062;13.952;100.608;2023-03-23T22:18:14;23.00;;;17.00;;
37169;SDS011;23062;13.952;100.608;2023-03-23T22:22:39;22.00;;;16.00;;
37169;SDS011;23062;13.952;100.608;2023-03-23T22:27:06;22.00;;;16.00;;
37169;SDS011;23062;13.952;100.608;2023-03-23T22:31:33;24.00;;;17.00;;
37169;SDS011;23062;13.952;100.608;2023-03-23T22:35:57;21.00;;;16.00;;
37169;SDS011;23062;13.952;100.608;2023-03-23T22:40:24;30.00;;;23.00;;
37169;SDS011;23062;13.952;100.608;2023-03-23T22:44:50;31.00;;;24.00;;
37169;SDS011;23062;13.952;100.608;2023-03-23T22:49:18;36.00;;;27.00;;
37169;SDS011;23062;13.952;100.608;2023-03-23T22:53:43;41.00;;;32.00;;
37169;SDS011;23062;13.952;100.608;2023-03-23T22:58:10;42.00;;;31.00;;
37169;SDS011;23062;13.952;100.608;2023-03-23T23:02:41;36.00;;;27.00;;
37169;SDS011;23062;13.952;100.608;2023-03-23T23:07:07;28.00;;;21.00;;
37169;SDS011;23062;13.952;100.608;2023-03-23T23:11:35;26.00;;;20.00;;
37169;SDS011;23062;13.952;100.608;2023-03-23T23:16:01;32.00;;;24.00;;
37169;SDS011;23062;13.952;100.608;2023-03-23T23:20:28;23.00;;;17.00;;
37169;SDS011;23062;13.952;100.608;2023-03-23T23:24:54;24.00;;;18.00;;
37169;SDS011;23062;13.952;100.608;2023-03-23T23:29:19;24.00;;;17.00;;
37169;SDS011;23062;13.952;100.608;2023-03-23T23:33:44;24.00;;;17.00;;
37169;SDS011;23062;13.952;100.608;2023-03-23T23:38:10;21.00;;;15.00;;
37169;SDS011;23062;13.952;100.608;2023-03-23T23:42:35;21.00;;;15.00;;
37169;SDS011;23062;13.952;100.608;2023-03-23T23:47:03;21.00;;;16.00;;
37169;SDS011;23062;13.952;100.608;2023-03-23T23:51:29;20.00;;;15.00;;
37169;SDS011;23062;13.952;100.608;2023-03-23T23:55:59;17.00;;;13.00;;
